Time;durP1;ratioP1;P1;durP2;ratioP2;P2;SDS_P1;SDS_P2;PMS_P1;PMS_P2;Temp;Humidity;BMP_temperature;BMP_pressure;BME280_temperature;BME280_humidity;BME280_pressure;Samples;Min_cycle;Max_cycle;Signal;HPM_P1;HPM_P2
2022/03/15 00:02:26;;;;;;;5.97;2.17;;;20.30;66.30;;;;;;7933359;28;20203;-52
2022/03/15 00:06:12;;;;;;;3.75;1.88;;;20.30;66.20;;;;;;7934065;28;20183;-52
2022/03/15 00:09:57;;;;;;;1.95;1.75;;;20.20;66.20;;;;;;7933673;28;20221;-49
2022/03/15 00:13:43;;;;;;;2.00;1.60;;;20.20;66.20;;;;;;7933973;28;20212;-51
2022/03/15 00:17:31;;;;;;;3.00;1.65;;;20.20;66.20;;;;;;7933675;28;20191;-49
2022/03/15 00:21:19;;;;;;;2.38;1.77;;;20.20;66.10;;;;;;7933406;28;20266;-50
2022/03/15 00:25:07;;;;;;;3.88;1.65;;;20.20;66.00;;;;;;7933368;28;20287;-50
2022/03/15 00:28:53;;;;;;;3.10;1.75;;;20.20;66.10;;;;;;7933339;28;20595;-51
2022/03/15 00:32:38;;;;;;;3.20;2.25;;;20.20;66.00;;;;;;7932605;28;20290;-49
2022/03/15 00:36:25;;;;;;;3.92;1.80;;;20.10;65.90;;;;;;7935024;28;20176;-47
2022/03/15 00:40:12;;;;;;;2.75;1.60;;;20.10;65.90;;;;;;7934081;28;20180;-48
2022/03/15 00:43:58;;;;;;;2.28;1.58;;;20.10;65.80;;;;;;7932701;28;20271;-49
2022/03/15 00:47:43;;;;;;;3.38;1.50;;;20.10;65.70;;;;;;7932589;28;20187;-48
2022/03/15 00:51:29;;;;;;;1.67;1.30;;;20.10;65.70;;;;;;7932050;28;20212;-47
2022/03/15 00:55:15;;;;;;;2.10;1.27;;;20.10;65.70;;;;;;7932566;28;20302;-48
2022/03/15 00:59:00;;;;;;;2.60;1.50;;;20.00;65.70;;;;;;7932465;28;20232;-50
2022/03/15 01:02:46;;;;;;;2.97;1.60;;;20.00;65.50;;;;;;7932076;28;20200;-48
2022/03/15 01:06:31;;;;;;;3.15;1.23;;;20.00;65.40;;;;;;7932367;28;20188;-49
2022/03/15 01:10:17;;;;;;;2.22;1.52;;;20.00;65.40;;;;;;7932562;28;20180;-49
2022/03/15 01:14:03;;;;;;;2.58;1.63;;;20.00;65.40;;;;;;7932008;28;20215;-52
2022/03/15 01:17:48;;;;;;;2.90;1.58;;;20.00;65.40;;;;;;7932300;28;20172;-49
2022/03/15 01:21:37;;;;;;;1.88;1.33;;;19.90;65.30;;;;;;7931951;28;20801;-49
2022/03/15 01:25:23;;;;;;;3.17;1.60;;;19.90;65.30;;;;;;7932100;28;20183;-47
2022/03/15 01:29:08;;;;;;;3.17;1.50;;;19.90;65.20;;;;;;7932377;28;20208;-49
2022/03/15 01:32:54;;;;;;;1.55;1.40;;;19.90;65.20;;;;;;7931936;28;20204;-47
2022/03/15 01:36:39;;;;;;;1.77;1.50;;;19.80;65.20;;;;;;7931829;28;20506;-48
2022/03/15 01:40:25;;;;;;;2.38;1.48;;;19.80;65.00;;;;;;7931507;28;20183;-47
2022/03/15 01:44:22;;;;;;;1.63;1.27;;;19.80;64.70;;;;;;7931709;28;20196;-48
2022/03/15 01:48:09;;;;;;;2.33;1.45;;;19.90;65.00;;;;;;7931620;28;20184;-47
2022/03/15 01:51:54;;;;;;;1.65;1.33;;;19.80;64.70;;;;;;7931078;28;20212;-48
2022/03/15 01:55:40;;;;;;;4.03;1.70;;;19.80;64.90;;;;;;7931756;28;20175;-49
2022/03/15 01:59:26;;;;;;;2.40;1.40;;;19.80;64.70;;;;;;7931236;28;20586;-48
2022/03/15 02:03:11;;;;;;;1.50;1.40;;;19.80;64.40;;;;;;7931227;28;20752;-49
2022/03/15 02:07:06;;;;;;;2.28;1.60;;;19.70;64.40;;;;;;7931517;28;20642;-47
2022/03/15 02:10:51;;;;;;;1.75;1.48;;;19.70;64.50;;;;;;7931300;28;20175;-48
2022/03/15 02:14:37;;;;;;;2.58;1.70;;;19.80;64.20;;;;;;7931292;28;20687;-48
2022/03/15 02:18:26;;;;;;;2.80;1.23;;;19.70;64.00;;;;;;7931055;28;20183;-49
2022/03/15 02:22:12;;;;;;;1.60;1.40;;;19.70;64.20;;;;;;7930856;28;20305;-49
2022/03/15 02:25:57;;;;;;;3.53;1.67;;;19.70;64.70;;;;;;7931114;28;20653;-52
2022/03/15 02:29:42;;;;;;;1.70;1.50;;;19.60;64.10;;;;;;7936238;28;20180;-49
2022/03/15 02:33:28;;;;;;;2.65;1.58;;;19.70;63.90;;;;;;7936567;28;20215;-48
2022/03/15 02:37:13;;;;;;;2.28;1.42;;;19.60;63.70;;;;;;7936719;28;20681;-50
2022/03/15 02:41:00;;;;;;;3.17;1.80;;;19.60;63.50;;;;;;7938618;28;20175;-47
2022/03/15 02:44:45;;;;;;;2.72;1.58;;;19.60;63.50;;;;;;7936150;28;20646;-48
2022/03/15 02:48:30;;;;;;;3.20;1.77;;;19.60;63.40;;;;;;7936065;28;20231;-47
2022/03/15 02:52:17;;;;;;;2.55;1.80;;;19.60;63.60;;;;;;7935611;28;20211;-49
2022/03/15 02:56:04;;;;;;;3.13;1.63;;;19.60;63.40;;;;;;7936269;28;20228;-49
2022/03/15 02:59:49;;;;;;;2.10;1.52;;;19.50;63.10;;;;;;7935795;28;20180;-50
2022/03/15 03:03:35;;;;;;;3.30;1.48;;;19.50;63.20;;;;;;7936326;28;20227;-48
2022/03/15 03:07:20;;;;;;;1.90;1.50;;;19.50;63.40;;;;;;7936061;28;20180;-50
2022/03/15 03:11:06;;;;;;;2.15;1.70;;;19.50;63.40;;;;;;7935441;28;20274;-50
2022/03/15 03:14:52;;;;;;;2.20;1.50;;;19.50;63.50;;;;;;7935378;28;20665;-48
2022/03/15 03:18:38;;;;;;;2.00;1.50;;;19.50;63.10;;;;;;7935285;28;20182;-48
2022/03/15 03:22:24;;;;;;;2.95;1.52;;;19.50;63.10;;;;;;7934694;28;20206;-48
2022/03/15 03:26:10;;;;;;;3.30;1.60;;;19.50;63.10;;;;;;7935553;28;20179;-47
2022/03/15 03:29:57;;;;;;;4.63;1.42;;;19.50;63.30;;;;;;7934669;28;20172;-47
2022/03/15 03:33:43;;;;;;;2.67;1.20;;;19.50;63.30;;;;;;7934944;28;20289;-47
2022/03/15 03:37:29;;;;;;;1.65;1.30;;;19.50;63.20;;;;;;7934315;28;20936;-48
2022/03/15 03:41:15;;;;;;;2.85;1.60;;;19.50;63.10;;;;;;7934348;28;20282;-48
2022/03/15 03:45:00;;;;;;;3.08;1.30;;;19.40;63.10;;;;;;7934375;28;20209;-47
2022/03/15 03:48:46;;;;;;;2.30;1.30;;;19.40;62.90;;;;;;7934317;28;20192;-50
2022/03/15 03:52:31;;;;;;;5.88;1.65;;;19.40;62.80;;;;;;7933839;28;20294;-47
2022/03/15 03:56:17;;;;;;;2.78;1.50;;;19.40;62.80;;;;;;7934104;28;20264;-49
2022/03/15 04:00:04;;;;;;;2.47;1.40;;;19.40;62.50;;;;;;7933756;28;20240;-49
2022/03/15 04:03:49;;;;;;;1.58;1.27;;;19.40;62.80;;;;;;7933675;28;20202;-47
2022/03/15 04:07:35;;;;;;;1.67;1.30;;;19.40;62.80;;;;;;7933655;28;20641;-49
2022/03/15 04:11:21;;;;;;;1.98;1.30;;;19.30;62.70;;;;;;7933476;28;20588;-48
2022/03/15 04:15:07;;;;;;;2.58;1.50;;;19.30;62.80;;;;;;7933480;28;20196;-48
2022/03/15 04:18:53;;;;;;;1.92;1.30;;;19.30;62.70;;;;;;7933421;28;20179;-47
2022/03/15 04:22:38;;;;;;;2.55;1.30;;;19.30;62.60;;;;;;7933063;28;20210;-48
2022/03/15 04:26:25;;;;;;;1.67;1.35;;;19.40;62.50;;;;;;7933178;28;20207;-50
2022/03/15 04:30:11;;;;;;;2.53;1.33;;;19.40;62.50;;;;;;7932753;28;20210;-48
2022/03/15 04:33:57;;;;;;;2.58;1.58;;;19.40;62.50;;;;;;7932960;28;20206;-49
2022/03/15 04:37:42;;;;;;;1.90;1.38;;;19.40;62.50;;;;;;7933147;28;20633;-47
2022/03/15 04:41:28;;;;;;;3.20;1.50;;;19.40;62.30;;;;;;7932653;28;20507;-50
2022/03/15 04:45:15;;;;;;;3.72;1.42;;;19.40;62.30;;;;;;7932972;28;20638;-49
2022/03/15 04:49:00;;;;;;;1.85;1.20;;;19.40;62.20;;;;;;7932136;28;20219;-51
2022/03/15 04:52:46;;;;;;;3.97;1.38;;;19.50;62.40;;;;;;7931967;28;20298;-47
2022/03/15 04:56:31;;;;;;;1.73;1.25;;;19.50;63.30;;;;;;7927248;28;20192;-48
2022/03/15 05:00:17;;;;;;;4.43;1.50;;;19.50;62.30;;;;;;7899364;28;20227;-52
2022/03/15 05:04:02;;;;;;;3.85;1.50;;;19.50;62.50;;;;;;7905442;28;20238;-47
2022/03/15 05:07:48;;;;;;;4.22;1.40;;;19.50;62.40;;;;;;7931450;28;20183;-47
2022/03/15 05:11:34;;;;;;;3.85;1.20;;;19.50;62.10;;;;;;7902818;28;20197;-48
2022/03/15 05:15:20;;;;;;;4.45;1.27;;;19.60;62.10;;;;;;7899324;28;20196;-50
2022/03/15 05:19:06;;;;;;;3.33;1.65;;;19.60;62.10;;;;;;7899474;28;20173;-49
2022/03/15 05:22:51;;;;;;;3.42;1.40;;;19.60;62.10;;;;;;7899512;28;20291;-48
2022/03/15 05:26:37;;;;;;;3.17;1.50;;;19.60;62.00;;;;;;7906896;28;20288;-47
2022/03/15 05:30:22;;;;;;;5.88;1.83;;;19.60;62.00;;;;;;7899514;28;20187;-49
2022/03/15 05:34:08;;;;;;;4.07;2.03;;;19.60;62.00;;;;;;7898748;28;20248;-49
2022/03/15 05:37:53;;;;;;;4.07;1.70;;;19.60;61.90;;;;;;7902935;28;20184;-50
2022/03/15 05:41:40;;;;;;;5.38;1.70;;;19.60;62.00;;;;;;7914074;28;20558;-52
2022/03/15 05:45:26;;;;;;;14.75;2.75;;;19.70;62.40;;;;;;7929181;28;20184;-48
2022/03/15 05:49:11;;;;;;;13.85;1.90;;;19.70;62.20;;;;;;7930342;28;20271;-49
2022/03/15 05:52:57;;;;;;;13.63;1.88;;;19.80;62.10;;;;;;7930374;28;20239;-48
2022/03/15 05:56:42;;;;;;;5.53;2.33;;;19.80;62.60;;;;;;7929287;28;20266;-48
2022/03/15 06:00:29;;;;;;;6.35;1.90;;;19.90;62.50;;;;;;7931228;28;20176;-50
2022/03/15 06:04:14;;;;;;;3.60;1.80;;;19.80;62.10;;;;;;7924926;28;20211;-51
2022/03/15 06:08:00;;;;;;;3.92;2.10;;;19.80;62.00;;;;;;7904796;28;20173;-50
2022/03/15 06:11:45;;;;;;;8.43;1.85;;;19.90;61.90;;;;;;7908355;28;20205;-47
2022/03/15 06:15:31;;;;;;;4.13;2.10;;;19.90;62.80;;;;;;7904667;28;20255;-48
2022/03/15 06:19:17;;;;;;;7.03;2.17;;;19.90;61.90;;;;;;7904319;28;20203;-46
2022/03/15 06:23:03;;;;;;;7.28;2.55;;;19.90;61.80;;;;;;7904551;28;20204;-51
2022/03/15 06:26:48;;;;;;;3.55;1.83;;;19.90;61.80;;;;;;7904549;28;20185;-48
2022/03/15 06:30:34;;;;;;;6.93;1.80;;;20.00;61.80;;;;;;7903644;28;20192;-47
2022/03/15 06:34:20;;;;;;;8.48;2.20;;;19.90;62.40;;;;;;7903832;28;20701;-48
2022/03/15 06:38:08;;;;;;;8.32;2.20;;;20.00;62.40;;;;;;7904646;28;20180;-48
2022/03/15 06:41:54;;;;;;;3.88;2.42;;;20.00;62.10;;;;;;7935286;28;20199;-50
2022/03/15 06:45:44;;;;;;;8.10;2.55;;;20.00;62.00;;;;;;7934407;28;20266;-49
2022/03/15 06:49:30;;;;;;;5.60;2.15;;;20.00;61.90;;;;;;7933626;28;20203;-47
2022/03/15 06:53:15;;;;;;;4.05;2.22;;;19.90;61.80;;;;;;7927998;28;20880;-47
2022/03/15 06:57:01;;;;;;;9.23;2.33;;;20.00;62.10;;;;;;7902781;28;20189;-47
2022/03/15 07:00:47;;;;;;;11.35;2.45;;;20.00;62.10;;;;;;7903157;28;20173;-47
2022/03/15 07:04:33;;;;;;;3.20;1.80;;;20.00;62.50;;;;;;7902878;28;20211;-49
2022/03/15 07:08:19;;;;;;;8.82;3.00;;;20.00;62.50;;;;;;7906019;28;20188;-47
2022/03/15 07:12:05;;;;;;;6.03;1.95;;;20.00;62.50;;;;;;7933494;28;20212;-47
2022/03/15 07:15:50;;;;;;;7.55;1.98;;;20.00;62.30;;;;;;7934170;28;20172;-49
2022/03/15 07:19:36;;;;;;;4.22;2.13;;;20.00;62.20;;;;;;7934191;28;20167;-50
2022/03/15 07:23:22;;;;;;;6.53;2.55;;;20.00;62.20;;;;;;7930340;28;20845;-49
2022/03/15 07:27:07;;;;;;;5.90;2.20;;;20.00;62.20;;;;;;7902704;28;20176;-47
2022/03/15 07:30:53;;;;;;;7.28;2.22;;;20.10;62.30;;;;;;7902235;28;20184;-49
2022/03/15 07:34:38;;;;;;;3.28;1.90;;;20.10;62.40;;;;;;7901800;28;20212;-50
2022/03/15 07:38:24;;;;;;;4.45;2.50;;;20.00;62.20;;;;;;7906526;28;20180;-47
2022/03/15 07:42:10;;;;;;;4.15;2.33;;;20.00;62.20;;;;;;7933831;28;20203;-48
2022/03/15 07:45:55;;;;;;;6.22;2.63;;;20.00;62.10;;;;;;7931322;28;20258;-49
2022/03/15 07:49:42;;;;;;;7.22;2.45;;;20.10;62.50;;;;;;7933604;28;20191;-52
2022/03/15 07:53:28;;;;;;;9.38;2.42;;;20.10;62.50;;;;;;7928493;28;20211;-49
2022/03/15 07:57:14;;;;;;;8.13;2.65;;;20.10;63.20;;;;;;7901773;28;20169;-51
2022/03/15 08:00:59;;;;;;;6.57;2.70;;;20.10;62.60;;;;;;7901526;28;20184;-50
2022/03/15 08:04:45;;;;;;;4.70;2.30;;;20.10;62.30;;;;;;7901107;28;20238;-48
2022/03/15 08:08:30;;;;;;;6.60;2.80;;;20.10;62.20;;;;;;7913823;28;20180;-49
2022/03/15 08:12:17;;;;;;;5.18;2.10;;;20.10;62.30;;;;;;7932232;28;20271;-49
2022/03/15 08:16:04;;;;;;;5.65;2.40;;;20.20;62.50;;;;;;7932393;28;20176;-49
2022/03/15 08:19:49;;;;;;;4.97;2.30;;;20.20;62.30;;;;;;7932494;28;20171;-48
2022/03/15 08:23:35;;;;;;;8.52;2.55;;;20.20;62.20;;;;;;7925464;28;20209;-49
2022/03/15 08:27:21;;;;;;;6.10;2.70;;;20.20;62.80;;;;;;7900630;28;20184;-48
2022/03/15 08:31:06;;;;;;;5.90;2.55;;;20.20;62.70;;;;;;7900465;28;20189;-47
2022/03/15 08:34:52;;;;;;;8.07;2.47;;;20.20;62.50;;;;;;7900316;28;20188;-49
2022/03/15 08:38:37;;;;;;;8.07;2.40;;;20.20;62.60;;;;;;7907460;28;20527;-47
2022/03/15 08:42:23;;;;;;;5.95;2.38;;;20.20;62.60;;;;;;7931560;28;20191;-49
2022/03/15 08:46:09;;;;;;;8.45;2.22;;;20.20;63.20;;;;;;7931679;28;20180;-50
2022/03/15 08:49:55;;;;;;;10.40;2.50;;;20.20;62.90;;;;;;7931189;28;20237;-48
2022/03/15 08:53:41;;;;;;;7.10;2.38;;;20.20;62.70;;;;;;7923898;28;20261;-49
2022/03/15 08:57:27;;;;;;;9.25;2.50;;;20.20;62.90;;;;;;7900262;28;20244;-47
2022/03/15 09:01:13;;;;;;;8.82;2.53;;;20.20;62.90;;;;;;7930456;28;20308;-47
2022/03/15 09:04:58;;;;;;;9.70;2.67;;;20.20;63.00;;;;;;7930703;28;20191;-50
2022/03/15 09:08:45;;;;;;;5.75;2.00;;;20.20;63.10;;;;;;7909646;28;20657;-47
2022/03/15 09:12:30;;;;;;;5.70;2.40;;;20.30;63.10;;;;;;7899675;28;20216;-47
2022/03/15 09:16:16;;;;;;;4.45;2.10;;;20.30;63.20;;;;;;7899320;28;20188;-47
2022/03/15 09:20:03;;;;;;;4.07;2.30;;;20.30;63.50;;;;;;7900528;28;20184;-47
2022/03/15 09:23:51;;;;;;;4.32;2.42;;;20.30;63.30;;;;;;7900115;28;20304;-47
2022/03/15 09:27:36;;;;;;;9.23;2.47;;;20.30;63.20;;;;;;7899140;28;20176;-49
2022/03/15 09:31:22;;;;;;;3.67;2.28;;;20.30;63.20;;;;;;7899277;28;20211;-47
2022/03/15 09:35:08;;;;;;;4.00;2.05;;;20.30;63.20;;;;;;7919550;28;20253;-49
2022/03/15 09:38:55;;;;;;;7.50;2.35;;;20.40;63.20;;;;;;7926534;28;20219;-48
2022/03/15 09:42:42;;;;;;;4.22;2.20;;;20.40;63.30;;;;;;7905428;28;20192;-49
2022/03/15 09:46:31;;;;;;;7.50;2.13;;;20.40;63.20;;;;;;7905435;28;20221;-47
2022/03/15 09:50:18;;;;;;;8.77;2.15;;;20.40;63.20;;;;;;7905059;28;20192;-51
2022/03/15 09:54:05;;;;;;;3.83;1.83;;;20.50;63.70;;;;;;7917185;28;20251;-47
2022/03/15 09:57:52;;;;;;;4.82;2.15;;;20.50;63.40;;;;;;7926561;28;20546;-48
2022/03/15 10:01:39;;;;;;;5.15;2.30;;;20.40;63.20;;;;;;7932681;28;20184;-50
2022/03/15 10:05:25;;;;;;;5.63;2.20;;;20.50;63.20;;;;;;7927687;28;20177;-49
2022/03/15 10:09:11;;;;;;;2.75;1.80;;;20.50;63.80;;;;;;7918189;28;20203;-48
2022/03/15 10:12:57;;;;;;;5.55;2.30;;;20.50;63.70;;;;;;7936170;28;20216;-47
2022/03/15 10:16:42;;;;;;;6.55;2.10;;;20.50;63.60;;;;;;7922988;28;20173;-50
2022/03/15 10:20:31;;;;;;;5.40;1.90;;;20.50;63.90;;;;;;7904522;28;20242;-46
2022/03/15 10:24:19;;;;;;;6.72;2.15;;;20.60;63.70;;;;;;7910996;28;20207;-49
2022/03/15 10:28:06;;;;;;;4.10;2.25;;;20.50;63.40;;;;;;7907464;28;20212;-47
2022/03/15 10:31:52;;;;;;;5.97;1.90;;;20.50;63.40;;;;;;7935851;28;20647;-47
2022/03/15 10:35:40;;;;;;;2.15;1.50;;;20.50;63.60;;;;;;7923735;28;20303;-49
2022/03/15 10:39:26;;;;;;;3.03;1.80;;;20.50;64.10;;;;;;7919826;28;20536;-48
2022/03/15 10:43:14;;;;;;;5.35;2.42;;;20.60;64.10;;;;;;7919803;28;20204;-47
2022/03/15 10:47:02;;;;;;;7.47;3.05;;;20.50;64.00;;;;;;7902275;28;20188;-47
2022/03/15 10:51:04;;;;;;;4.97;2.72;;;20.50;64.00;;;;;;7903392;28;20558;-50
2022/03/15 10:54:50;;;;;;;10.35;2.95;;;20.50;64.00;;;;;;7903180;28;20204;-48
2022/03/15 10:58:43;;;;;;;8.13;2.53;;;20.50;63.70;;;;;;7903402;28;20177;-50
2022/03/15 11:02:32;;;;;;;9.88;2.40;;;20.50;64.40;;;;;;7903189;28;20193;-47
2022/03/15 11:06:40;;;;;;;6.50;1.80;;;20.60;63.40;;;;;;7902686;28;20172;-49
2022/03/15 11:10:26;;;;;;;10.45;2.30;;;20.50;63.60;;;;;;7928121;28;20187;-48
2022/03/15 11:14:11;;;;;;;6.25;1.98;;;20.50;64.40;;;;;;7934585;28;20207;-47
2022/03/15 11:17:59;;;;;;;6.28;2.05;;;20.50;63.40;;;;;;7934264;28;20180;-48
2022/03/15 11:21:46;;;;;;;3.95;1.95;;;20.50;63.40;;;;;;7933860;27;20196;-50
2022/03/15 11:25:47;;;;;;;3.63;2.08;;;20.50;63.50;;;;;;7907310;28;20214;-47
2022/03/15 11:29:33;;;;;;;4.97;1.92;;;20.50;63.50;;;;;;7902536;28;20672;-50
2022/03/15 11:33:19;;;;;;;8.77;2.35;;;20.50;63.40;;;;;;7917827;28;20696;-48
2022/03/15 11:37:05;;;;;;;6.53;2.00;;;20.50;63.60;;;;;;7931055;28;20172;-50
2022/03/15 11:40:54;;;;;;;8.18;2.35;;;20.50;63.70;;;;;;7903947;27;20181;-47
2022/03/15 11:45:01;;;;;;;6.13;2.65;;;20.50;63.50;;;;;;7901474;28;20689;-47
2022/03/15 11:49:17;;;;;;;9.43;2.53;;;20.40;63.20;;;;;;7901941;28;20245;-49
2022/03/15 11:53:26;;;;;;;10.10;2.65;;;20.40;63.50;;;;;;7907670;28;20237;-47
2022/03/15 11:57:21;;;;;;;6.68;2.90;;;20.40;63.40;;;;;;7922413;28;20177;-51
2022/03/15 12:01:12;;;;;;;10.23;2.60;;;20.40;63.50;;;;;;7921906;28;20183;-50
2022/03/15 12:04:58;;;;;;;9.40;2.65;;;20.40;63.30;;;;;;7932831;28;20245;-47
2022/03/15 12:08:53;;;;;;;24.50;2.90;;;20.40;63.50;;;;;;7932607;28;20645;-47
2022/03/15 12:12:42;;;;;;;5.85;2.60;;;20.40;63.50;;;;;;7932516;28;20716;-50
2022/03/15 12:16:34;;;;;;;4.97;2.25;;;20.40;63.60;;;;;;7908377;28;20177;-47
2022/03/15 12:20:21;;;;;;;5.65;2.22;;;20.40;63.40;;;;;;7900833;28;20563;-47
2022/03/15 12:24:14;;;;;;;10.35;2.30;;;20.40;63.80;;;;;;7900559;28;20233;-47
2022/03/15 12:28:03;;;;;;;8.70;2.47;;;20.30;63.50;;;;;;7900902;28;20182;-50
2022/03/15 12:31:50;;;;;;;5.60;2.70;;;20.30;63.50;;;;;;7902888;28;20582;-48
2022/03/15 12:35:36;;;;;;;5.70;2.60;;;20.30;63.50;;;;;;7900197;28;20555;-47
2022/03/15 12:39:24;;;;;;;7.68;2.05;;;20.30;63.80;;;;;;7900180;28;20172;-49
2022/03/15 12:43:23;;;;;;;7.80;2.28;;;20.30;64.40;;;;;;7900323;28;20572;-49
2022/03/15 12:47:10;;;;;;;7.45;2.30;;;20.30;64.00;;;;;;7929929;28;20184;-49
2022/03/15 12:50:59;;;;;;;5.93;2.20;;;20.30;64.10;;;;;;7931533;28;20192;-47
2022/03/15 12:54:45;;;;;;;8.70;2.40;;;20.30;64.70;;;;;;7931428;28;20210;-48
2022/03/15 12:58:30;;;;;;;4.85;2.40;;;20.30;64.70;;;;;;7931517;28;20175;-48
2022/03/15 13:02:17;;;;;;;9.68;2.50;;;20.30;64.30;;;;;;7900016;28;20735;-49
2022/03/15 13:06:03;;;;;;;8.23;2.50;;;20.30;65.20;;;;;;7899846;28;20176;-47
2022/03/15 13:09:56;;;;;;;6.78;2.72;;;20.30;65.00;;;;;;7910350;28;20209;-48
2022/03/15 13:13:45;;;;;;;7.93;2.58;;;20.30;65.00;;;;;;7928995;28;20879;-50
2022/03/15 13:17:31;;;;;;;6.60;2.10;;;20.30;64.70;;;;;;7899541;28;20225;-47
2022/03/15 13:21:17;;;;;;;10.13;2.13;;;20.30;64.40;;;;;;7899808;28;20222;-47
2022/03/15 13:25:04;;;;;;;4.50;2.13;;;20.30;64.80;;;;;;7899534;28;20226;-48
2022/03/15 13:28:52;;;;;;;7.85;2.50;;;20.40;64.50;;;;;;7903179;28;20178;-47
2022/03/15 13:32:37;;;;;;;7.28;2.10;;;20.40;64.50;;;;;;7930970;28;20219;-48
2022/03/15 13:36:24;;;;;;;9.90;2.72;;;20.40;64.60;;;;;;7929120;28;20222;-53
2022/03/15 13:40:11;;;;;;;9.57;3.03;;;20.40;64.40;;;;;;7930009;28;20176;-48
2022/03/15 13:43:58;;;;;;;5.50;2.67;;;20.40;64.80;;;;;;7926184;28;20207;-50
2022/03/15 13:47:53;;;;;;;9.98;2.92;;;20.40;65.00;;;;;;7899094;28;20188;-47
2022/03/15 13:51:40;;;;;;;11.68;2.67;;;20.40;65.00;;;;;;7898442;28;20211;-47
2022/03/15 13:55:26;;;;;;;8.95;2.60;;;20.40;64.80;;;;;;7898748;28;20196;-50
2022/03/15 13:59:15;;;;;;;6.97;2.85;;;20.50;64.50;;;;;;7905343;28;20677;-50
2022/03/15 14:03:07;;;;;;;9.70;2.42;;;20.50;64.50;;;;;;7930495;28;20204;-49
2022/03/15 14:06:59;;;;;;;7.63;2.65;;;20.50;64.50;;;;;;7930268;28;20178;-47
2022/03/15 14:10:45;;;;;;;7.57;2.20;;;20.50;64.50;;;;;;7930435;28;20172;-47
2022/03/15 14:14:36;;;;;;;5.10;2.50;;;20.50;64.50;;;;;;7925522;28;20235;-49
2022/03/15 14:18:24;;;;;;;5.45;2.40;;;20.60;64.60;;;;;;7926904;28;20181;-50
2022/03/15 14:22:11;;;;;;;5.13;2.60;;;20.60;64.60;;;;;;7929162;28;20196;-48
2022/03/15 14:26:01;;;;;;;8.80;2.40;;;20.70;64.30;;;;;;7933942;28;20256;-47
2022/03/15 14:29:52;;;;;;;14.90;2.97;;;20.70;63.80;;;;;;7935862;28;20168;-47
2022/03/15 14:33:38;;;;;;;6.57;2.50;;;20.70;63.40;;;;;;7908277;28;20252;-48
2022/03/15 14:37:25;;;;;;;9.00;2.65;;;20.80;63.90;;;;;;7904862;28;20165;-49
2022/03/15 14:41:12;;;;;;;12.63;3.03;;;20.80;63.50;;;;;;7904381;28;20164;-47
2022/03/15 14:44:59;;;;;;;7.00;2.47;;;20.90;63.00;;;;;;7904649;28;20253;-46
2022/03/15 14:48:48;;;;;;;8.70;2.63;;;21.00;63.00;;;;;;7904826;28;20283;-47
2022/03/15 14:52:35;;;;;;;8.27;2.50;;;21.00;63.00;;;;;;7904346;28;20357;-48
2022/03/15 14:56:21;;;;;;;4.60;2.30;;;21.10;63.10;;;;;;7904585;28;20176;-49
2022/03/15 15:00:08;;;;;;;7.03;2.15;;;21.20;63.50;;;;;;7904135;28;20309;-47
2022/03/15 15:03:53;;;;;;;9.07;2.33;;;21.20;65.70;;;;;;7903940;28;20279;-50
2022/03/15 15:07:39;;;;;;;7.72;2.10;;;21.40;66.40;;;;;;7904776;28;20667;-48
2022/03/15 15:11:26;;;;;;;12.50;2.35;;;21.60;66.50;;;;;;7903957;28;20202;-50
2022/03/15 15:15:15;;;;;;;7.10;1.85;;;21.60;66.20;;;;;;7903838;28;20168;-47
2022/03/15 15:19:02;;;;;;;4.45;1.85;;;21.80;66.00;;;;;;7903596;28;20208;-46
2022/03/15 15:22:48;;;;;;;4.07;1.83;;;21.90;65.80;;;;;;7903466;28;20188;-47
2022/03/15 15:26:35;;;;;;;3.78;1.58;;;22.00;65.70;;;;;;7903672;28;20230;-47
2022/03/15 15:30:21;;;;;;;3.42;1.90;;;22.00;65.50;;;;;;7903417;28;20180;-51
2022/03/15 15:34:07;;;;;;;5.60;1.58;;;22.10;65.60;;;;;;7902216;28;20229;-48
2022/03/15 15:37:58;;;;;;;9.77;1.83;;;22.10;65.20;;;;;;7903143;28;20173;-50
2022/03/15 15:41:44;;;;;;;16.80;2.22;;;22.20;65.30;;;;;;7902846;28;20797;-49
2022/03/15 15:45:40;;;;;;;5.85;2.00;;;22.20;64.50;;;;;;7902776;28;20743;-47
2022/03/15 15:49:29;;;;;;;10.38;2.40;;;22.10;64.90;;;;;;7900977;28;20203;-48
2022/03/15 15:53:15;;;;;;;9.20;2.28;;;22.10;65.00;;;;;;7902381;28;20689;-48
2022/03/15 15:57:01;;;;;;;10.18;2.20;;;22.20;65.10;;;;;;7902600;28;20176;-48
2022/03/15 16:00:47;;;;;;;9.88;2.42;;;22.20;65.10;;;;;;7902203;28;20264;-48
2022/03/15 16:04:32;;;;;;;7.28;2.28;;;22.20;65.10;;;;;;7902326;28;20193;-48
2022/03/15 16:08:18;;;;;;;10.45;2.50;;;22.20;65.10;;;;;;7902246;28;20212;-49
2022/03/15 16:12:06;;;;;;;5.85;2.03;;;22.20;65.10;;;;;;7901995;28;20211;-49
2022/03/15 16:15:51;;;;;;;11.70;2.50;;;22.30;65.10;;;;;;7901947;28;20237;-48
2022/03/15 16:19:36;;;;;;;6.63;2.38;;;22.30;65.10;;;;;;7901696;28;20177;-51
2022/03/15 16:23:22;;;;;;;8.45;2.63;;;22.40;65.20;;;;;;7901891;28;20684;-47
2022/03/15 16:27:08;;;;;;;3.97;2.30;;;22.40;65.10;;;;;;7925273;28;20187;-48
2022/03/15 16:30:54;;;;;;;3.90;2.47;;;22.50;65.00;;;;;;7933114;28;20222;-48
2022/03/15 16:34:39;;;;;;;6.60;2.60;;;22.70;65.00;;;;;;7933134;28;20680;-47
2022/03/15 16:38:25;;;;;;;6.85;2.22;;;22.80;65.00;;;;;;7933466;28;20539;-52
2022/03/15 16:42:10;;;;;;;6.72;2.58;;;22.90;64.90;;;;;;7933148;28;20206;-49
2022/03/15 16:45:56;;;;;;;10.00;3.05;;;23.00;64.80;;;;;;7932343;28;20541;-47
2022/03/15 16:49:42;;;;;;;6.75;2.80;;;23.10;64.70;;;;;;7932859;28;20196;-50
2022/03/15 16:53:28;;;;;;;5.75;2.45;;;23.20;64.70;;;;;;7932629;28;20208;-52
2022/03/15 16:57:13;;;;;;;7.45;3.08;;;23.30;64.70;;;;;;7932723;28;20172;-48
2022/03/15 17:00:58;;;;;;;4.03;2.45;;;23.40;64.60;;;;;;7931168;28;20178;-47
2022/03/15 17:08:48;;;;;;;3.63;2.60;;;23.50;64.50;;;;;;7932807;28;20175;-50
2022/03/15 17:12:35;;;;;;;6.25;2.97;;;23.60;64.60;;;;;;7932161;28;20260;-47
2022/03/15 17:16:21;;;;;;;4.03;2.63;;;23.50;64.50;;;;;;7932151;28;20186;-51
2022/03/15 17:20:08;;;;;;;5.55;2.55;;;23.60;64.40;;;;;;7930138;28;20657;-49
2022/03/15 17:23:54;;;;;;;5.90;2.70;;;23.60;64.50;;;;;;7900404;28;20781;-48
2022/03/15 17:27:42;;;;;;;5.65;2.60;;;23.60;64.60;;;;;;7900554;28;20183;-49
2022/03/15 17:31:34;;;;;;;4.68;2.70;;;23.50;64.60;;;;;;7899825;28;20207;-47
2022/03/15 17:35:19;;;;;;;8.10;2.88;;;23.50;64.60;;;;;;7900307;28;20690;-49
2022/03/15 17:39:05;;;;;;;47.95;4.43;;;23.50;64.30;;;;;;7900101;28;20582;-48
2022/03/15 17:42:55;;;;;;;84.18;7.50;;;23.40;65.70;;;;;;7900140;28;20185;-50
2022/03/15 17:46:40;;;;;;;92.72;7.47;;;23.40;65.40;;;;;;7900060;28;20181;-50
2022/03/15 17:50:28;;;;;;;56.08;6.97;;;23.40;65.40;;;;;;7899776;28;20669;-48
2022/03/15 17:54:16;;;;;;;108.93;8.23;;;23.40;65.40;;;;;;7899932;28;20265;-49
2022/03/15 17:58:12;;;;;;;65.45;6.97;;;23.30;65.40;;;;;;7903128;28;20161;-47
2022/03/15 18:01:58;;;;;;;47.22;6.68;;;23.30;65.40;;;;;;7905826;28;20204;-50
2022/03/15 18:05:44;;;;;;;69.57;7.50;;;23.30;65.30;;;;;;7919985;28;20187;-48
2022/03/15 18:09:30;;;;;;;61.60;6.68;;;23.30;65.30;;;;;;7929879;28;20192;-48
2022/03/15 18:13:22;;;;;;;79.35;7.85;;;23.30;65.20;;;;;;7925923;28;20299;-50
2022/03/15 18:17:13;;;;;;;52.40;9.80;;;23.20;62.70;;;;;;7936639;28;20183;-52
2022/03/15 18:21:05;;;;;;;48.38;7.55;;;23.00;62.50;;;;;;7935943;28;20254;-47
2022/03/15 18:24:51;;;;;;;45.50;7.47;;;22.90;64.10;;;;;;7936233;27;20220;-47
2022/03/15 18:28:41;;;;;;;33.85;7.90;;;22.90;64.60;;;;;;7922126;28;20196;-49
2022/03/15 18:32:27;;;;;;;32.45;6.35;;;22.90;64.80;;;;;;7903647;28;20204;-47
2022/03/15 18:36:13;;;;;;;28.23;6.72;;;23.00;64.80;;;;;;7941008;27;20182;-48
2022/03/15 18:40:00;;;;;;;36.78;7.47;;;23.10;65.10;;;;;;7967648;27;20195;-49
2022/03/15 18:43:46;;;;;;;25.63;6.35;;;23.20;65.00;;;;;;7945383;27;20204;-47
2022/03/15 18:47:31;;;;;;;28.70;6.65;;;23.40;65.00;;;;;;7904317;28;20269;-49
2022/03/15 18:51:17;;;;;;;22.05;5.82;;;23.50;65.10;;;;;;7907195;28;20207;-51
2022/03/15 18:55:03;;;;;;;29.70;5.20;;;23.60;65.00;;;;;;7935109;28;20219;-51
2022/03/15 18:58:49;;;;;;;22.73;5.80;;;23.80;65.00;;;;;;7935073;28;20180;-47
2022/03/15 19:02:35;;;;;;;31.52;5.70;;;23.90;64.80;;;;;;7934080;28;20287;-48
2022/03/15 19:06:23;;;;;;;28.60;6.28;;;24.00;64.80;;;;;;7934931;28;20182;-50
2022/03/15 19:10:09;;;;;;;23.88;5.50;;;24.10;64.80;;;;;;7933408;28;20694;-50
2022/03/15 19:13:55;;;;;;;29.38;5.60;;;24.10;64.80;;;;;;7916561;28;20633;-47
2022/03/15 19:17:43;;;;;;;20.65;5.38;;;24.20;64.80;;;;;;7903058;28;20187;-48
2022/03/15 19:21:29;;;;;;;16.95;5.78;;;24.20;64.80;;;;;;7902302;28;20191;-49
2022/03/15 19:25:15;;;;;;;27.73;5.40;;;24.20;64.90;;;;;;7902698;28;20197;-47
2022/03/15 19:29:01;;;;;;;14.55;5.25;;;24.20;64.90;;;;;;7912086;28;20212;-50
2022/03/15 19:32:47;;;;;;;17.98;5.47;;;24.20;65.00;;;;;;7901470;28;20204;-50
2022/03/15 19:37:26;;;;;;;18.98;4.55;;;24.10;65.00;;;;;;7902518;28;20177;-47
2022/03/15 19:41:13;;;;;;;17.83;4.82;;;24.10;65.40;;;;;;7902110;28;20173;-49
2022/03/15 19:44:59;;;;;;;13.15;4.88;;;24.10;65.40;;;;;;7906301;28;20341;-48